createdAt,value
2022-12-31T00:01:37.538Z,86.84
2022-12-31T00:06:39.045Z,87.44
2022-12-31T00:11:40.629Z,89.37
2022-12-31T00:16:42.753Z,90.46
2022-12-31T00:21:44.318Z,90.34
2022-12-31T00:26:45.892Z,91.18
2022-12-31T00:31:47.404Z,92.38
2022-12-31T00:36:48.893Z,92.53
2022-12-31T00:41:50.491Z,92.96
2022-12-31T00:46:52.040Z,92.78
2022-12-31T00:51:53.625Z,94.32
2022-12-31T00:56:55.125Z,95.24
2022-12-31T01:01:56.806Z,95.32
2022-12-31T01:06:58.430Z,94.34
2022-12-31T01:12:00.163Z,95.72
2022-12-31T01:17:01.700Z,95.46
2022-12-31T01:22:03.213Z,95.06
2022-12-31T01:27:04.757Z,96.16
2022-12-31T01:32:06.307Z,97.50
2022-12-31T01:37:07.813Z,97.61
2022-12-31T01:42:11.267Z,97.00
2022-12-31T01:47:15.749Z,97.56
2022-12-31T01:52:20.247Z,97.76
2022-12-31T01:57:22.411Z,97.44
2022-12-31T02:02:24.295Z,97.02
2022-12-31T02:07:26.023Z,98.61
2022-12-31T02:12:27.624Z,98.61
2022-12-31T02:17:41.836Z,96.94
2022-12-31T02:23:10.867Z,98.61
2022-12-31T02:28:15.524Z,99.89
2022-12-31T02:33:22.100Z,99.84
2022-12-31T02:38:26.413Z,100.00
2022-12-31T02:43:28.348Z,100.00
2022-12-31T02:48:38.625Z,96.12
2022-12-31T02:53:43.286Z,92.39
2022-12-31T02:59:35.686Z,93.42
2022-12-31T03:04:37.298Z,90.86
2022-12-31T03:09:39.173Z,89.29
2022-12-31T03:14:40.772Z,88.48
2022-12-31T03:20:01.087Z,87.96
2022-12-31T03:25:27.337Z,88.80
2022-12-31T03:30:29.512Z,87.08
2022-12-31T03:35:33.129Z,89.16
2022-12-31T03:40:38.379Z,89.37
2022-12-31T03:45:39.909Z,88.34
2022-12-31T03:50:41.480Z,87.85
2022-12-31T03:55:43.036Z,89.36
2022-12-31T04:00:44.536Z,90.23
2022-12-31T04:05:51.870Z,90.13
2022-12-31T04:10:53.377Z,89.34
2022-12-31T04:15:54.851Z,90.38
2022-12-31T04:21:01.028Z,89.88
2022-12-31T04:26:02.555Z,90.62
2022-12-31T04:31:04.279Z,89.39
2022-12-31T04:36:06.961Z,87.63
2022-12-31T04:41:17.823Z,87.66
2022-12-31T04:46:21.030Z,87.44
2022-12-31T04:51:23.002Z,87.51
2022-12-31T04:56:24.713Z,84.55
2022-12-31T05:01:26.450Z,83.86
2022-12-31T05:06:28.107Z,84.44
2022-12-31T05:11:29.616Z,83.20
2022-12-31T05:16:31.170Z,83.16
2022-12-31T05:21:32.971Z,83.40
2022-12-31T05:26:34.822Z,83.42
2022-12-31T05:31:36.470Z,82.50
2022-12-31T05:36:37.959Z,82.84
2022-12-31T05:41:39.510Z,84.04
2022-12-31T05:46:41.002Z,83.43
2022-12-31T05:51:42.621Z,84.63
2022-12-31T05:56:44.194Z,83.40
2022-12-31T06:01:45.754Z,82.12
2022-12-31T06:06:47.323Z,82.95
2022-12-31T06:11:48.867Z,82.79
2022-12-31T06:16:50.440Z,82.58
2022-12-31T06:21:52.114Z,82.49
2022-12-31T06:26:53.731Z,82.38
2022-12-31T06:31:55.457Z,83.22
2022-12-31T06:36:56.926Z,82.39
2022-12-31T06:41:58.463Z,81.83
2022-12-31T06:46:59.939Z,81.82
2022-12-31T06:52:01.584Z,81.74
2022-12-31T06:57:03.351Z,83.19
2022-12-31T07:02:12.020Z,82.53
2022-12-31T07:07:29.027Z,80.91
2022-12-31T07:12:30.543Z,81.24
2022-12-31T07:17:36.699Z,82.11
2022-12-31T07:22:38.391Z,81.00
2022-12-31T07:27:58.424Z,81.50
2022-12-31T07:33:25.256Z,80.66
2022-12-31T07:38:36.704Z,79.38
2022-12-31T07:43:50.660Z,79.02
2022-12-31T07:48:52.422Z,76.88
2022-12-31T07:53:54.110Z,76.13
2022-12-31T07:59:02.432Z,75.23
2022-12-31T08:04:18.193Z,74.84
2022-12-31T08:09:19.718Z,73.87
2022-12-31T08:14:21.313Z,72.50
2022-12-31T08:19:28.398Z,71.55
2022-12-31T08:24:35.766Z,71.51
2022-12-31T08:29:45.960Z,70.86
2022-12-31T08:34:53.907Z,69.94
2022-12-31T08:39:58.546Z,69.60
2022-12-31T08:45:08.973Z,69.21
2022-12-31T08:50:15.306Z,69.61
2022-12-31T08:55:18.773Z,68.85
2022-12-31T09:00:21.257Z,68.73
2022-12-31T09:05:23.374Z,67.97
2022-12-31T09:10:30.136Z,68.04
2022-12-31T09:15:43.842Z,67.42
2022-12-31T09:20:45.500Z,66.70
2022-12-31T09:25:52.156Z,67.61
2022-12-31T09:30:53.708Z,66.22
2022-12-31T09:35:58.346Z,65.74
2022-12-31T09:40:59.947Z,66.17
2022-12-31T09:46:20.270Z,65.46
2022-12-31T09:51:29.758Z,64.20
2022-12-31T09:56:54.095Z,64.22
2022-12-31T10:02:15.275Z,65.14
2022-12-31T10:07:16.863Z,64.33
2022-12-31T10:12:36.984Z,63.92
2022-12-31T10:17:47.738Z,63.51
2022-12-31T10:23:16.118Z,64.19
2022-12-31T10:28:36.515Z,63.80
2022-12-31T10:33:42.300Z,63.53
2022-12-31T10:38:53.318Z,62.79
2022-12-31T10:44:13.773Z,62.91
2022-12-31T10:49:20.965Z,62.98
2022-12-31T10:54:31.685Z,63.97
2022-12-31T10:59:45.527Z,63.16
2022-12-31T11:04:53.130Z,63.34
2022-12-31T11:10:13.503Z,63.60
2022-12-31T11:15:27.384Z,63.22
2022-12-31T11:20:47.334Z,63.82
2022-12-31T11:26:13.363Z,63.13
2022-12-31T11:31:32.666Z,63.00
2022-12-31T11:36:43.386Z,62.88
2022-12-31T11:41:53.640Z,62.71
2022-12-31T11:46:58.219Z,62.08
2022-12-31T11:52:02.760Z,61.19
2022-12-31T11:57:16.669Z,61.16
2022-12-31T12:02:25.058Z,61.11
2022-12-31T12:07:27.152Z,61.15
2022-12-31T12:12:41.810Z,60.19
2022-12-31T12:17:43.441Z,60.29
2022-12-31T12:22:49.583Z,58.07
2022-12-31T12:27:51.308Z,57.99
2022-12-31T12:32:54.032Z,58.18
2022-12-31T12:38:00.287Z,58.56
2022-12-31T12:43:02.503Z,58.60
2022-12-31T12:48:08.972Z,59.21
2022-12-31T12:53:28.854Z,58.45
2022-12-31T12:58:31.841Z,59.00
2022-12-31T13:04:32.488Z,59.62
2022-12-31T13:09:30.382Z,59.40
2022-12-31T13:14:44.900Z,59.37
2022-12-31T13:19:53.279Z,59.91
2022-12-31T13:25:06.505Z,58.83
2022-12-31T13:30:19.422Z,59.86
2022-12-31T13:35:28.200Z,60.05
2022-12-31T13:40:33.281Z,59.13
2022-12-31T13:45:46.918Z,60.31
2022-12-31T13:50:55.009Z,60.03
2022-12-31T13:55:58.748Z,60.12
2022-12-31T14:01:05.264Z,60.73
2022-12-31T14:06:11.375Z,61.00
2022-12-31T14:11:17.186Z,60.99
2022-12-31T14:16:21.843Z,61.66
2022-12-31T14:21:27.051Z,61.01
2022-12-31T14:26:31.245Z,61.85
2022-12-31T14:31:39.023Z,61.41
2022-12-31T14:36:46.418Z,61.89
2022-12-31T14:42:00.943Z,61.88
2022-12-31T14:47:12.602Z,62.22
2022-12-31T14:52:20.447Z,62.86
2022-12-31T14:57:24.467Z,62.17
2022-12-31T15:02:27.934Z,61.68
2022-12-31T15:07:34.788Z,61.25
2022-12-31T15:12:46.632Z,62.00
2022-12-31T15:17:48.072Z,61.25
2022-12-31T15:22:50.921Z,61.23
2022-12-31T15:27:52.857Z,61.30
2022-12-31T15:32:56.657Z,60.61
2022-12-31T15:38:10.337Z,61.09
2022-12-31T15:43:28.011Z,62.55
2022-12-31T15:48:29.517Z,62.35
2022-12-31T15:53:42.791Z,61.51
2022-12-31T15:58:45.995Z,61.44
2022-12-31T16:04:10.656Z,61.34
2022-12-31T16:09:18.379Z,62.01
2022-12-31T16:14:22.843Z,61.54
2022-12-31T16:19:34.772Z,61.76
2022-12-31T16:24:48.877Z,61.62
2022-12-31T16:30:00.442Z,61.55
2022-12-31T16:35:02.227Z,61.18
2022-12-31T16:40:08.414Z,62.45
2022-12-31T16:45:18.020Z,63.01
2022-12-31T16:50:23.504Z,64.11
2022-12-31T16:55:26.480Z,64.09
2022-12-31T17:00:28.409Z,64.67
2022-12-31T17:05:30.045Z,64.74
2022-12-31T17:10:36.188Z,63.97
2022-12-31T17:15:42.482Z,63.93
2022-12-31T17:20:44.340Z,65.18
2022-12-31T17:25:45.916Z,65.34
2022-12-31T17:30:47.481Z,66.02
2022-12-31T17:35:54.159Z,66.49
2022-12-31T17:41:07.618Z,66.54
2022-12-31T17:46:11.498Z,66.01
2022-12-31T17:51:13.155Z,66.25
2022-12-31T17:56:18.385Z,66.54
2022-12-31T18:01:21.690Z,67.32
2022-12-31T18:06:23.471Z,68.33
2022-12-31T18:11:25.421Z,67.84
2022-12-31T18:16:27.034Z,67.45
2022-12-31T18:21:34.171Z,68.52
2022-12-31T18:26:35.790Z,69.61
2022-12-31T18:31:37.716Z,70.26
2022-12-31T18:36:39.530Z,71.00
2022-12-31T18:41:42.313Z,69.53
2022-12-31T18:46:43.943Z,69.58
2022-12-31T18:51:45.596Z,67.58
2022-12-31T18:56:49.339Z,69.44
2022-12-31T19:01:54.204Z,70.45
2022-12-31T19:06:56.513Z,72.04
2022-12-31T19:11:58.170Z,72.71
2022-12-31T19:22:03.496Z,74.70
2022-12-31T19:27:05.093Z,74.54
2022-12-31T19:32:06.795Z,74.21
2022-12-31T19:37:12.058Z,73.54
2022-12-31T19:42:15.319Z,71.39
2022-12-31T19:47:16.909Z,68.79
2022-12-31T19:52:18.510Z,64.80
2022-12-31T19:57:20.128Z,64.97
2022-12-31T20:02:25.165Z,62.78
2022-12-31T20:07:27.890Z,61.51
2022-12-31T20:12:29.649Z,60.30
2022-12-31T20:17:31.365Z,59.87
2022-12-31T20:22:33.063Z,58.69
2022-12-31T20:27:34.785Z,57.88
2022-12-31T20:32:36.353Z,56.99
2022-12-31T20:37:38.241Z,55.62
2022-12-31T20:42:40.792Z,55.01
2022-12-31T20:47:42.436Z,55.18
2022-12-31T20:52:44.303Z,55.27
2022-12-31T20:57:45.959Z,55.28
2022-12-31T21:02:56.375Z,55.72
2022-12-31T21:07:59.445Z,54.23
2022-12-31T21:13:01.014Z,54.69
2022-12-31T21:18:02.707Z,54.09
2022-12-31T21:23:04.256Z,53.22
2022-12-31T21:28:05.849Z,53.56
2022-12-31T21:33:07.798Z,53.47
2022-12-31T21:38:09.524Z,53.50
2022-12-31T21:43:12.054Z,52.60
2022-12-31T21:48:20.540Z,52.53
2022-12-31T21:53:26.176Z,51.00
2022-12-31T21:58:30.869Z,49.90
2022-12-31T22:03:32.559Z,49.79
2022-12-31T22:08:34.563Z,49.31
2022-12-31T22:13:36.948Z,49.31
2022-12-31T22:18:39.292Z,49.48
2022-12-31T22:23:41.656Z,48.82
2022-12-31T22:28:43.931Z,48.91
2022-12-31T22:33:45.540Z,48.59
2022-12-31T22:38:47.592Z,48.72
2022-12-31T22:44:02.288Z,49.27
2022-12-31T22:49:05.168Z,49.68
2022-12-31T22:54:06.681Z,49.86
2022-12-31T22:59:08.394Z,50.27
2022-12-31T23:04:09.989Z,51.08
2022-12-31T23:09:30.940Z,51.30
2022-12-31T23:14:51.251Z,51.60
2022-12-31T23:20:11.194Z,52.30
2022-12-31T23:25:12.776Z,52.75
2022-12-31T23:30:14.306Z,52.97
2022-12-31T23:35:15.970Z,52.64
2022-12-31T23:40:21.434Z,53.10
2022-12-31T23:45:26.959Z,53.47
2022-12-31T23:50:31.266Z,53.54
2022-12-31T23:55:32.786Z,54.16
